createdAt,value
2016-07-17T00:00:01.060Z,99.99
2016-07-17T00:01:01.107Z,99.99
2016-07-17T00:02:01.083Z,99.99
2016-07-17T00:03:01.096Z,99.99
2016-07-17T00:04:01.093Z,99.99
2016-07-17T00:05:01.102Z,99.99
2016-07-17T00:06:01.149Z,99.99
2016-07-17T00:07:01.093Z,99.99
2016-07-17T00:08:01.224Z,99.99
2016-07-17T00:09:01.074Z,99.99
2016-07-17T00:10:01.385Z,99.99
2016-07-17T00:11:01.068Z,99.99
2016-07-17T00:12:01.087Z,99.99
2016-07-17T00:13:01.117Z,99.99
2016-07-17T00:14:01.053Z,99.99
2016-07-17T00:15:01.095Z,99.99
2016-07-17T00:16:01.096Z,99.99
2016-07-17T00:17:01.095Z,99.99
2016-07-17T00:18:01.088Z,99.99
2016-07-17T00:19:01.073Z,99.99
2016-07-17T00:20:01.072Z,99.99
2016-07-17T00:21:01.097Z,99.99
2016-07-17T00:22:01.113Z,99.99
2016-07-17T00:23:01.101Z,99.99
2016-07-17T00:24:01.063Z,99.99
2016-07-17T00:25:01.169Z,99.99
2016-07-17T00:26:01.130Z,99.99
2016-07-17T00:27:01.098Z,99.99
2016-07-17T00:28:01.103Z,99.99
2016-07-17T00:29:01.079Z,99.99
2016-07-17T00:30:01.089Z,99.99
2016-07-17T00:31:01.331Z,99.99
2016-07-17T00:32:01.275Z,99.99
2016-07-17T00:33:01.079Z,99.99
2016-07-17T00:34:01.113Z,99.99
2016-07-17T00:35:01.119Z,99.99
2016-07-17T00:36:01.105Z,99.99
2016-07-17T00:37:01.125Z,99.99
2016-07-17T00:38:01.143Z,99.99
2016-07-17T00:39:01.138Z,99.99
2016-07-17T00:40:01.102Z,99.99
2016-07-17T00:41:01.233Z,99.99
2016-07-17T00:42:01.373Z,99.99
2016-07-17T00:43:01.116Z,99.99
2016-07-17T00:44:01.104Z,99.99
2016-07-17T00:45:01.102Z,99.99
2016-07-17T00:46:01.079Z,99.99
2016-07-17T00:47:01.101Z,99.99
2016-07-17T00:48:01.100Z,99.99
2016-07-17T00:49:01.109Z,99.99
2016-07-17T00:50:01.107Z,99.99
2016-07-17T00:51:01.163Z,99.99
2016-07-17T00:52:01.090Z,99.99
2016-07-17T00:53:01.476Z,99.99
2016-07-17T00:54:01.225Z,99.99
2016-07-17T00:55:01.069Z,99.99
2016-07-17T00:56:01.079Z,99.99
2016-07-17T00:57:01.124Z,99.99
2016-07-17T00:58:01.112Z,99.99
2016-07-17T00:59:01.115Z,99.99
2016-07-17T01:00:01.131Z,99.99
2016-07-17T01:01:01.107Z,99.99
2016-07-17T01:02:01.378Z,99.99
2016-07-17T01:03:01.129Z,99.99
2016-07-17T01:04:01.132Z,99.99
2016-07-17T01:05:01.138Z,99.99
2016-07-17T01:06:01.161Z,99.99
2016-07-17T01:07:01.139Z,99.99
2016-07-17T01:08:01.135Z,99.99
2016-07-17T01:09:01.133Z,99.99
2016-07-17T01:10:01.120Z,99.99
2016-07-17T01:11:01.104Z,99.99
2016-07-17T01:12:01.115Z,99.99
2016-07-17T01:13:01.290Z,99.99
2016-07-17T01:14:01.134Z,99.99
2016-07-17T01:15:01.137Z,99.99
2016-07-17T01:16:01.118Z,99.99
2016-07-17T01:17:01.095Z,99.99
2016-07-17T01:18:01.283Z,99.99
2016-07-17T01:19:01.111Z,99.99
2016-07-17T01:20:01.160Z,99.99
2016-07-17T01:21:01.166Z,99.99
2016-07-17T01:22:01.097Z,99.99
2016-07-17T01:23:01.122Z,99.99
2016-07-17T01:24:01.109Z,99.99
2016-07-17T01:25:01.108Z,99.99
2016-07-17T01:26:01.104Z,99.99
2016-07-17T01:27:01.124Z,99.99
2016-07-17T01:28:01.170Z,99.99
2016-07-17T01:29:01.131Z,99.99
2016-07-17T01:30:01.136Z,99.99
2016-07-17T01:31:01.134Z,99.99
2016-07-17T01:32:01.129Z,99.99
2016-07-17T01:33:01.111Z,99.99
2016-07-17T01:34:01.111Z,99.99
2016-07-17T01:35:01.140Z,99.99
2016-07-17T01:36:01.152Z,99.99
2016-07-17T01:37:01.119Z,99.99
2016-07-17T01:38:01.133Z,99.99
2016-07-17T01:39:01.167Z,99.99
2016-07-17T01:40:01.142Z,99.99
2016-07-17T01:41:01.111Z,99.99
2016-07-17T01:42:01.136Z,99.99
2016-07-17T01:43:01.134Z,99.99
2016-07-17T01:44:01.119Z,99.99
2016-07-17T01:45:01.752Z,99.99
2016-07-17T01:46:01.251Z,99.99
2016-07-17T01:47:01.292Z,99.99
2016-07-17T01:48:01.152Z,99.99
2016-07-17T01:49:01.114Z,99.99
2016-07-17T01:50:01.156Z,99.99
2016-07-17T02:03:01.932Z,99.99
2016-07-17T02:03:19.007Z,99.99
2016-07-17T02:04:18.956Z,99.99
2016-07-17T02:05:18.979Z,99.99
2016-07-17T02:06:18.985Z,99.99
2016-07-17T02:07:19.220Z,99.99
2016-07-17T02:08:18.972Z,99.99
2016-07-17T02:09:19.005Z,99.99
2016-07-17T02:10:19.017Z,99.99
2016-07-17T02:11:18.972Z,99.99
2016-07-17T02:12:19.221Z,99.99
2016-07-17T02:13:18.994Z,99.99
2016-07-17T02:14:19.180Z,99.99
2016-07-17T02:15:18.964Z,99.99
2016-07-17T02:16:18.993Z,99.99
2016-07-17T02:17:19.017Z,99.99
2016-07-17T02:18:18.953Z,99.99
2016-07-17T02:19:19.009Z,99.99
2016-07-17T02:20:19.121Z,99.99
2016-07-17T02:21:18.971Z,99.99
2016-07-17T02:22:19.011Z,99.99
2016-07-17T02:23:19.379Z,99.99
2016-07-17T02:24:18.983Z,99.99
2016-07-17T02:25:18.976Z,99.99
2016-07-17T02:26:18.989Z,99.99
2016-07-17T02:27:18.991Z,99.99
2016-07-17T02:28:18.974Z,99.99
2016-07-17T02:29:19.005Z,99.99
2016-07-17T02:30:18.996Z,99.99
2016-07-17T02:31:19.023Z,99.99
2016-07-17T02:32:18.952Z,99.99
2016-07-17T02:33:18.992Z,99.99
2016-07-17T02:34:18.973Z,99.99
2016-07-17T02:35:19.067Z,99.99
2016-07-17T02:36:19.035Z,99.99
2016-07-17T02:37:19.014Z,99.99
2016-07-17T02:38:19.004Z,99.99
2016-07-17T02:39:19.060Z,99.99
2016-07-17T02:40:18.988Z,99.99
2016-07-17T02:41:19.022Z,99.99
2016-07-17T02:42:19.005Z,99.99
2016-07-17T02:43:19.060Z,99.99
2016-07-17T02:44:20.910Z,99.99
2016-07-17T02:45:19.005Z,99.99
2016-07-17T02:46:19.074Z,99.99
2016-07-17T02:47:18.978Z,99.99
2016-07-17T02:48:19.527Z,99.99
2016-07-17T02:49:19.008Z,99.99
2016-07-17T02:50:18.990Z,99.99
2016-07-17T02:51:18.994Z,99.99
2016-07-17T02:52:19.005Z,99.99
2016-07-17T02:53:18.994Z,99.99
2016-07-17T02:54:19.006Z,99.99
2016-07-17T02:55:19.000Z,99.99
2016-07-17T02:56:19.006Z,99.99
2016-07-17T02:57:18.969Z,99.99
2016-07-17T02:58:19.071Z,99.99
2016-07-17T02:59:19.056Z,99.99
2016-07-17T03:00:19.110Z,99.99
2016-07-17T03:01:19.427Z,99.99
2016-07-17T03:02:19.179Z,99.99
2016-07-17T03:03:18.983Z,99.99
2016-07-17T03:04:19.029Z,99.99
2016-07-17T03:05:19.125Z,99.99
2016-07-17T03:06:19.020Z,99.99
2016-07-17T03:07:18.996Z,99.99
2016-07-17T03:08:19.013Z,99.99
2016-07-17T03:09:19.094Z,99.99
2016-07-17T03:10:20.638Z,99.99
2016-07-17T03:11:19.020Z,99.99
2016-07-17T03:12:19.029Z,99.99
2016-07-17T03:13:19.019Z,99.99
2016-07-17T03:14:19.040Z,99.99
2016-07-17T03:15:19.016Z,99.99
2016-07-17T03:16:19.025Z,99.99
2016-07-17T03:17:19.034Z,99.99
2016-07-17T03:18:19.003Z,99.99
2016-07-17T03:19:19.048Z,99.99
2016-07-17T03:20:18.980Z,99.99
2016-07-17T03:21:19.029Z,99.99
2016-07-17T03:22:18.991Z,99.99
2016-07-17T03:23:19.006Z,99.99
2016-07-17T03:24:19.313Z,99.99
2016-07-17T03:25:18.996Z,99.99
2016-07-17T03:26:19.002Z,99.99
2016-07-17T03:27:19.070Z,99.99
2016-07-17T03:28:19.025Z,99.99
2016-07-17T03:29:19.036Z,99.99
2016-07-17T03:30:19.027Z,99.99
2016-07-17T03:31:19.026Z,99.99
2016-07-17T03:32:19.003Z,99.99
2016-07-17T03:33:19.018Z,99.99
2016-07-17T03:34:19.127Z,99.99
2016-07-17T03:35:19.103Z,99.99
2016-07-17T03:36:19.018Z,99.99
2016-07-17T03:37:19.150Z,99.99
2016-07-17T03:38:19.034Z,99.99
2016-07-17T03:39:19.052Z,99.99
2016-07-17T03:51:36.952Z,99.99
2016-07-17T03:52:36.976Z,99.99
2016-07-17T03:53:36.938Z,99.99
2016-07-17T03:54:36.918Z,99.99
2016-07-17T03:55:36.982Z,99.99
2016-07-17T03:56:36.946Z,99.99
2016-07-17T03:57:37.006Z,99.99
2016-07-17T03:58:36.939Z,99.99
2016-07-17T03:59:37.129Z,99.99
2016-07-17T04:00:36.956Z,99.99
2016-07-17T04:01:37.061Z,99.99
2016-07-17T04:02:37.170Z,99.99
2016-07-17T04:03:36.948Z,99.99
2016-07-17T04:04:36.963Z,99.99
2016-07-17T04:05:36.978Z,99.99
2016-07-17T04:06:36.967Z,99.99
2016-07-17T04:07:36.956Z,99.99
2016-07-17T04:08:36.950Z,99.99
2016-07-17T04:09:37.028Z,99.99
2016-07-17T04:10:37.050Z,99.99
2016-07-17T04:11:36.953Z,99.99
2016-07-17T04:12:37.139Z,99.99
2016-07-17T04:13:36.982Z,99.99
2016-07-17T04:26:37.852Z,99.99
2016-07-17T04:26:54.948Z,99.99
2016-07-17T04:27:54.913Z,99.99
2016-07-17T04:28:55.195Z,99.99
2016-07-17T04:29:54.939Z,99.99
2016-07-17T04:30:54.928Z,99.99
2016-07-17T04:31:55.441Z,99.99
2016-07-17T04:32:54.941Z,99.99
2016-07-17T04:33:55.076Z,99.99
2016-07-17T04:34:54.996Z,99.99
2016-07-17T04:35:54.926Z,99.99
2016-07-17T04:36:54.900Z,99.99
2016-07-17T04:37:54.933Z,99.99
2016-07-17T04:38:54.919Z,99.99
2016-07-17T04:39:55.524Z,99.99
2016-07-17T04:40:54.904Z,99.99
2016-07-17T04:41:54.906Z,99.99
2016-07-17T04:42:55.012Z,99.99
2016-07-17T04:43:54.886Z,99.99
2016-07-17T04:44:55.089Z,99.99
2016-07-17T04:45:55.011Z,99.99
2016-07-17T04:46:54.923Z,99.99
2016-07-17T04:47:54.920Z,99.99
2016-07-17T04:48:54.928Z,99.99
2016-07-17T04:49:54.923Z,99.99
2016-07-17T04:50:55.003Z,99.99
2016-07-17T04:51:54.916Z,99.99
2016-07-17T04:52:54.916Z,99.99
2016-07-17T04:53:55.229Z,99.99
2016-07-17T04:54:54.952Z,99.99
2016-07-17T04:55:55.073Z,99.99
2016-07-17T04:56:54.951Z,99.99
2016-07-17T04:57:54.927Z,99.99
2016-07-17T04:58:54.938Z,99.99
2016-07-17T04:59:54.954Z,99.99
2016-07-17T05:00:54.922Z,99.99
2016-07-17T05:01:55.259Z,99.99
2016-07-17T05:02:54.923Z,99.99
2016-07-17T05:03:54.966Z,99.99
2016-07-17T05:04:55.301Z,99.99
2016-07-17T05:05:54.912Z,99.99
2016-07-17T05:06:59.725Z,99.99
2016-07-17T05:07:57.220Z,99.99
2016-07-17T05:08:54.990Z,99.99
2016-07-17T05:09:55.035Z,99.99
2016-07-17T05:10:54.974Z,99.99
2016-07-17T05:11:55.268Z,99.99
2016-07-17T05:12:55.016Z,99.99
2016-07-17T05:13:56.222Z,99.99
2016-07-17T05:14:58.284Z,99.99
2016-07-17T05:15:59.562Z,99.99
2016-07-17T05:16:54.940Z,99.99
2016-07-17T05:17:55.568Z,99.99
2016-07-17T05:18:54.924Z,99.99
2016-07-17T05:19:54.935Z,99.99
2016-07-17T05:20:54.972Z,99.99
2016-07-17T05:21:55.128Z,99.99
2016-07-17T05:22:54.969Z,99.99
2016-07-17T05:23:54.947Z,99.99
2016-07-17T05:36:58.681Z,99.99
2016-07-17T05:37:36.872Z,99.99
2016-07-17T05:38:36.820Z,99.99
2016-07-17T05:39:36.710Z,99.99
2016-07-17T05:40:36.953Z,99.99
2016-07-17T05:41:36.739Z,99.99
2016-07-17T05:42:36.691Z,99.99
2016-07-17T05:44:41.896Z,99.99
2016-07-17T05:47:28.673Z,99.99
2016-07-17T05:48:28.146Z,99.99
2016-07-17T05:49:28.082Z,99.99
2016-07-17T05:50:38.228Z,99.99
2016-07-17T05:51:28.099Z,99.99
2016-07-17T05:52:28.089Z,99.99
2016-07-17T05:53:28.077Z,99.99
2016-07-17T05:54:28.114Z,99.99
2016-07-17T05:55:28.127Z,99.99
2016-07-17T05:56:28.086Z,99.99
2016-07-17T05:57:28.159Z,99.99
2016-07-17T05:58:28.072Z,99.99
2016-07-17T05:59:28.119Z,99.99
2016-07-17T06:00:34.233Z,99.99
2016-07-17T06:01:34.243Z,99.99
2016-07-17T06:02:34.501Z,99.99
2016-07-17T06:03:34.249Z,99.99
2016-07-17T06:04:34.199Z,99.99
2016-07-17T06:05:34.517Z,99.99
2016-07-17T06:06:36.194Z,99.99
2016-07-17T06:07:34.153Z,99.99
2016-07-17T06:08:36.415Z,99.99
2016-07-17T06:09:34.187Z,99.99
2016-07-17T06:10:34.167Z,99.99
2016-07-17T06:11:33.597Z,99.99
2016-07-17T06:12:36.201Z,99.99
2016-07-17T06:13:34.201Z,99.99
2016-07-17T06:14:34.180Z,99.99
2016-07-17T06:15:45.511Z,99.99
2016-07-17T06:16:34.327Z,99.99
2016-07-17T06:17:34.202Z,99.99
2016-07-17T06:18:34.352Z,99.99
2016-07-17T06:19:34.191Z,99.99
2016-07-17T06:20:34.309Z,99.99
2016-07-17T06:21:34.374Z,99.99
2016-07-17T06:22:34.686Z,99.99
2016-07-17T06:23:34.291Z,99.99
2016-07-17T06:24:34.443Z,99.99
2016-07-17T06:25:34.172Z,99.99
2016-07-17T06:26:34.582Z,99.99
2016-07-17T06:27:34.243Z,99.99
2016-07-17T06:28:34.201Z,99.99
2016-07-17T06:29:34.724Z,99.99
2016-07-17T06:30:38.292Z,99.99
2016-07-17T06:31:34.281Z,99.99
2016-07-17T06:32:34.182Z,99.99
2016-07-17T06:33:34.229Z,99.99
2016-07-17T06:34:34.172Z,99.99
2016-07-17T06:35:34.323Z,99.99
2016-07-17T06:36:34.436Z,99.99
2016-07-17T06:37:34.475Z,99.99
2016-07-17T06:38:34.186Z,99.99
2016-07-17T06:39:34.447Z,99.99
2016-07-17T06:40:34.875Z,99.99
2016-07-17T06:41:34.623Z,99.99
2016-07-17T06:42:34.343Z,99.99
2016-07-17T06:43:34.384Z,99.99
2016-07-17T06:44:34.419Z,99.99
2016-07-17T06:45:34.177Z,99.99
2016-07-17T06:46:44.398Z,99.99
2016-07-17T06:47:34.186Z,99.99
2016-07-17T06:48:34.219Z,99.99
2016-07-17T06:49:34.366Z,99.99
2016-07-17T06:50:34.527Z,99.99
2016-07-17T06:51:34.208Z,99.99
2016-07-17T06:52:34.975Z,99.99
2016-07-17T06:53:34.209Z,99.99
2016-07-17T06:54:34.189Z,99.99
2016-07-17T06:55:34.843Z,99.99
2016-07-17T06:56:34.664Z,99.99
2016-07-17T06:57:34.221Z,99.99
2016-07-17T06:58:33.606Z,99.99
2016-07-17T06:59:34.182Z,99.99
2016-07-17T07:00:34.811Z,99.99
2016-07-17T07:01:44.356Z,99.99
2016-07-17T07:02:34.359Z,99.99
2016-07-17T07:03:34.237Z,99.99
2016-07-17T07:04:34.213Z,99.99
2016-07-17T07:05:40.230Z,99.99
2016-07-17T07:06:34.209Z,99.99
2016-07-17T07:07:34.215Z,99.99
2016-07-17T07:08:34.243Z,99.99
2016-07-17T07:09:39.632Z,99.99
2016-07-17T07:10:34.209Z,99.99
2016-07-17T07:11:34.225Z,99.99
2016-07-17T07:12:35.243Z,99.99
2016-07-17T07:13:35.385Z,99.99
2016-07-17T07:14:34.286Z,99.99
2016-07-17T07:15:36.768Z,99.99
2016-07-17T07:16:34.224Z,99.99
2016-07-17T07:17:34.229Z,99.99
2016-07-17T07:18:34.186Z,99.99
2016-07-17T07:19:34.219Z,99.99
2016-07-17T07:20:34.202Z,99.99
2016-07-17T07:21:34.217Z,99.99
2016-07-17T07:22:34.224Z,99.99
2016-07-17T07:23:34.269Z,99.99
2016-07-17T07:24:35.146Z,99.99
2016-07-17T07:25:34.358Z,99.99
2016-07-17T07:26:34.205Z,99.99
2016-07-17T07:27:34.306Z,99.99
2016-07-17T07:28:34.251Z,99.99
2016-07-17T07:29:34.241Z,99.99
2016-07-17T07:30:34.197Z,99.99
2016-07-17T07:31:34.207Z,99.99
2016-07-17T07:32:34.832Z,99.99
2016-07-17T07:33:34.232Z,99.99
2016-07-17T07:34:34.328Z,99.99
2016-07-17T07:35:34.342Z,99.99
2016-07-17T07:36:34.296Z,99.99
2016-07-17T07:37:34.399Z,99.99
2016-07-17T07:38:34.466Z,99.5
2016-07-17T07:39:34.248Z,99.6
2016-07-17T07:40:34.230Z,98.83
2016-07-17T07:41:34.274Z,99.26
2016-07-17T07:42:34.236Z,98.78
2016-07-17T07:43:34.258Z,98.68
2016-07-17T07:44:35.526Z,98.97
2016-07-17T07:45:34.189Z,98.3
2016-07-17T07:46:34.249Z,98.35
2016-07-17T07:47:34.244Z,97.33
2016-07-17T07:48:39.933Z,97.72
2016-07-17T07:49:34.580Z,98.58
2016-07-17T07:50:34.343Z,98.97
2016-07-17T07:51:34.356Z,99.21
2016-07-17T07:52:36.641Z,99.99
2016-07-17T07:53:34.249Z,99.99
2016-07-17T07:54:35.711Z,99.99
2016-07-17T07:55:34.397Z,99.99
2016-07-17T07:56:34.259Z,99.99
2016-07-17T07:57:34.671Z,99.99
2016-07-17T07:58:34.281Z,99.99
2016-07-17T07:59:34.309Z,99.99
2016-07-17T08:00:34.256Z,99.99
2016-07-17T08:01:34.552Z,99.99
2016-07-17T08:02:34.525Z,99.99
2016-07-17T08:03:34.267Z,99.99
2016-07-17T08:04:34.228Z,99.99
2016-07-17T08:05:34.429Z,99.99
2016-07-17T08:06:34.551Z,99.99
2016-07-17T08:07:34.318Z,99.99
2016-07-17T08:08:34.368Z,99.99
2016-07-17T08:09:34.658Z,99.99
2016-07-17T08:10:34.237Z,99.99
2016-07-17T08:11:34.329Z,99.99
2016-07-17T08:12:34.323Z,99.99
2016-07-17T08:13:34.500Z,99.99
2016-07-17T08:14:34.492Z,99.99
2016-07-17T08:15:34.630Z,99.99
2016-07-17T08:16:34.268Z,99.99
2016-07-17T08:17:34.696Z,99.99
2016-07-17T08:19:06.540Z,99.99
2016-07-17T08:19:34.301Z,99.99
2016-07-17T08:20:34.312Z,99.99
2016-07-17T08:21:40.358Z,99.99
2016-07-17T08:22:34.495Z,99.99
2016-07-17T08:23:34.217Z,99.99
2016-07-17T08:24:34.252Z,99.99
2016-07-17T08:25:34.260Z,99.99
2016-07-17T08:26:34.409Z,99.99
2016-07-17T08:27:34.640Z,99.99
2016-07-17T08:28:34.532Z,99.99
2016-07-17T08:29:34.430Z,99.99
2016-07-17T08:30:34.245Z,99.99
2016-07-17T08:31:34.300Z,99.99
2016-07-17T08:32:34.309Z,99.99
2016-07-17T08:33:34.432Z,99.99
2016-07-17T08:34:34.279Z,99.99
2016-07-17T08:35:34.291Z,99.99
2016-07-17T08:36:34.270Z,99.99
2016-07-17T08:37:34.504Z,99.99
2016-07-17T08:38:35.723Z,99.99
2016-07-17T08:39:34.814Z,99.99
2016-07-17T08:40:34.456Z,99.99
2016-07-17T08:41:34.462Z,98.83
2016-07-17T08:42:34.270Z,94.38
2016-07-17T08:43:35.369Z,92.4
2016-07-17T08:44:34.296Z,88.57
2016-07-17T08:45:34.463Z,86.66
2016-07-17T08:46:34.273Z,83.7
2016-07-17T08:47:35.725Z,81.7
2016-07-17T08:48:34.319Z,82.62
2016-07-17T08:49:34.281Z,85
2016-07-17T08:50:34.343Z,86.47
2016-07-17T08:51:34.291Z,84.78
2016-07-17T08:52:34.293Z,82.92
2016-07-17T08:53:34.342Z,79.99
2016-07-17T08:54:34.364Z,80.76
2016-07-17T08:55:34.264Z,83.44
2016-07-17T08:56:36.509Z,84.22
2016-07-17T08:57:34.284Z,85.35
2016-07-17T08:58:34.291Z,87.2
2016-07-17T08:59:34.303Z,89.48
2016-07-17T09:00:34.287Z,90.26
2016-07-17T09:01:34.284Z,90.84
2016-07-17T09:02:34.235Z,90.84
2016-07-17T09:03:34.409Z,91.77
2016-07-17T09:04:34.312Z,92.06
2016-07-17T09:05:34.279Z,92.54
2016-07-17T09:06:34.276Z,93.9
2016-07-17T09:07:34.299Z,94.96
2016-07-17T09:08:34.294Z,95.45
2016-07-17T09:09:34.284Z,95.73
2016-07-17T09:10:47.373Z,94.67
2016-07-17T09:11:34.303Z,95.06
2016-07-17T09:12:34.750Z,94.57
2016-07-17T09:13:34.617Z,94.48
2016-07-17T09:14:34.309Z,94.57
2016-07-17T09:15:35.312Z,95.25
2016-07-17T09:16:34.268Z,94.82
2016-07-17T09:17:34.362Z,94.53
2016-07-17T09:18:34.283Z,94.62
2016-07-17T09:19:34.292Z,94.57
2016-07-17T09:20:34.284Z,93.8
2016-07-17T09:21:34.295Z,92.69
2016-07-17T09:22:34.319Z,91.38
2016-07-17T09:23:34.375Z,92.49
2016-07-17T09:24:34.339Z,92.83
2016-07-17T09:25:34.301Z,92.06
2016-07-17T09:26:35.063Z,91.58
2016-07-17T09:27:34.285Z,89.78
2016-07-17T09:29:10.657Z,87.06
2016-07-17T09:29:39.044Z,86.52
2016-07-17T09:30:34.329Z,87.45
2016-07-17T09:31:34.462Z,89.05
2016-07-17T09:32:34.303Z,90.21
2016-07-17T09:33:38.685Z,89.88
2016-07-17T09:34:34.356Z,87.99
2016-07-17T09:35:49.659Z,88.9
2016-07-17T09:36:34.365Z,89.05
2016-07-17T09:37:35.144Z,90.36
2016-07-17T09:38:34.375Z,89.97
2016-07-17T09:39:34.369Z,90.07
2016-07-17T09:40:45.214Z,87.85
2016-07-17T09:41:34.334Z,88.28
2016-07-17T09:42:35.466Z,87.45
2016-07-17T09:43:34.287Z,88.23
2016-07-17T09:44:34.321Z,90.07
2016-07-17T09:45:35.221Z,89.78
2016-07-17T09:46:44.123Z,88.85
2016-07-17T09:47:43.105Z,87.75
2016-07-17T09:48:43.345Z,84.93
2016-07-17T09:49:43.099Z,84
2016-07-17T09:50:44.790Z,83.47
2016-07-17T09:51:43.155Z,83.17
2016-07-17T09:52:53.143Z,81.57
2016-07-17T09:53:48.987Z,79.37
2016-07-17T09:55:31.979Z,77.12
2016-07-17T09:55:49.510Z,77.15
2016-07-17T09:56:49.127Z,77.35
2016-07-17T09:57:49.108Z,76.18
2016-07-17T09:58:49.107Z,74.48
2016-07-17T09:59:49.107Z,73.93
2016-07-17T10:00:50.164Z,74.26
2016-07-17T10:01:49.488Z,74.38
2016-07-17T10:02:49.188Z,75.93
2016-07-17T10:03:56.279Z,77.55
2016-07-17T10:04:49.145Z,77.67
2016-07-17T10:06:14.043Z,78.44
2016-07-17T10:06:49.108Z,75.7
2016-07-17T10:07:49.104Z,73.11
2016-07-17T10:09:00.649Z,71.23
2016-07-17T10:09:49.153Z,70.4
2016-07-17T10:10:49.102Z,69.59
2016-07-17T10:11:49.153Z,70.04
2016-07-17T10:12:49.141Z,71.95
2016-07-17T10:13:49.237Z,74.12
2016-07-17T10:14:49.129Z,74.38
2016-07-17T10:15:54.312Z,75.7
2016-07-17T10:16:49.129Z,75.95
2016-07-17T10:17:49.161Z,75.67
2016-07-17T10:18:49.126Z,75.99
2016-07-17T10:20:36.833Z,75.8
2016-07-17T10:24:26.944Z,77.22
2016-07-17T10:25:26.880Z,78.64
2016-07-17T10:26:28.409Z,80.4
2016-07-17T10:27:43.239Z,81.62
2016-07-17T10:28:26.854Z,81.29
2016-07-17T10:29:26.844Z,81.97
2016-07-17T10:30:27.483Z,81.25
2016-07-17T10:31:27.188Z,80.65
2016-07-17T10:32:48.117Z,80.65
2016-07-17T10:33:46.408Z,80.75
2016-07-17T10:34:41.968Z,80.75
2016-07-17T10:35:27.507Z,81.72
2016-07-17T10:36:31.629Z,81.87
2016-07-17T10:37:55.392Z,82.84
2016-07-17T10:38:55.566Z,81.54
2016-07-17T10:39:56.524Z,80.13
2016-07-17T10:40:55.463Z,80.88
2016-07-17T10:41:56.353Z,79.91
2016-07-17T10:42:55.454Z,81.04
2016-07-17T10:43:59.332Z,81.43
2016-07-17T10:44:55.549Z,81.04
2016-07-17T10:45:59.584Z,79.43
2016-07-17T10:55:17.295Z,75.78
2016-07-17T10:56:17.303Z,75.99
2016-07-17T10:57:17.301Z,77.02
2016-07-17T10:58:18.887Z,78.59
2016-07-17T10:59:43.043Z,80.94
2016-07-17T11:00:17.373Z,81.48
2016-07-17T11:01:17.416Z,80.22
2016-07-17T11:02:17.312Z,79.63
2016-07-17T11:03:17.345Z,80.01
2016-07-17T11:04:17.297Z,80.4
2016-07-17T11:05:17.330Z,78.46
2016-07-17T11:06:17.321Z,74.46
2016-07-17T11:07:17.794Z,73.5
2016-07-17T11:08:17.345Z,74.76
2016-07-17T11:09:33.536Z,75.6
2016-07-17T11:10:17.371Z,76.01
2016-07-17T11:11:20.271Z,77.37
2016-07-17T11:12:17.519Z,77.72
2016-07-17T11:13:17.646Z,77.34
2016-07-17T11:26:03.908Z,80.73
2016-07-17T11:38:22.833Z,74.12
2016-07-17T11:39:31.437Z,75.59
2016-07-17T11:40:22.591Z,75.49
2016-07-17T11:41:22.590Z,76.56
2016-07-17T11:42:22.582Z,76.46
2016-07-17T11:43:51.181Z,75.94
2016-07-17T11:44:23.294Z,74.52
2016-07-17T11:45:42.397Z,74.91
2016-07-17T11:46:32.747Z,74.85
2016-07-17T11:47:23.468Z,74.56
2016-07-17T11:48:22.590Z,74.52
2016-07-17T11:57:46.257Z,68.83
2016-07-17T11:58:42.050Z,68.02
2016-07-17T11:59:59.994Z,66.5
2016-07-17T12:00:47.770Z,66.17
2016-07-17T12:01:41.603Z,64.16
2016-07-17T12:02:43.204Z,63.31
2016-07-17T12:03:41.631Z,63.12
2016-07-17T12:04:42.143Z,62.6
2016-07-17T12:05:41.596Z,63.02
2016-07-17T12:06:41.907Z,64.09
2016-07-17T12:07:44.973Z,66.37
2016-07-17T12:09:08.250Z,67.47
2016-07-17T12:09:51.826Z,66.21
2016-07-17T12:10:41.605Z,66.44
2016-07-17T12:11:41.554Z,68.45
2016-07-17T12:12:41.592Z,69.45
2016-07-17T12:13:41.588Z,69.65
2016-07-17T12:15:53.556Z,70.87
2016-07-17T12:16:34.681Z,74.07
2016-07-17T12:17:34.653Z,74.62
2016-07-17T12:18:45.469Z,75.2
2016-07-17T12:19:34.629Z,75.55
2016-07-17T12:20:45.114Z,76.04
2016-07-17T12:33:36.553Z,74.23
2016-07-17T12:34:10.833Z,68.32
2016-07-17T12:35:07.735Z,67.86
2016-07-17T12:36:11.095Z,68.8
2016-07-17T12:37:15.924Z,69.93
2016-07-17T12:38:07.734Z,70.87
2016-07-17T12:39:07.792Z,72.09
2016-07-17T12:40:07.746Z,71.7
2016-07-17T12:41:07.751Z,71.03
2016-07-17T12:42:07.799Z,71.16
2016-07-17T12:43:07.749Z,71.74
2016-07-17T12:44:07.857Z,70.87
2016-07-17T12:45:46.628Z,68.28
2016-07-17T12:46:16.383Z,66.99
2016-07-17T12:48:03.824Z,66.24
2016-07-17T12:48:20.975Z,65.01
2016-07-17T12:49:22.109Z,64.62
2016-07-17T12:50:20.856Z,65.11
2016-07-17T12:51:21.103Z,65.85
2016-07-17T12:52:20.883Z,68.41
2016-07-17T12:53:21.591Z,68.79
2016-07-17T12:54:22.328Z,66.34
2016-07-17T12:55:21.015Z,67.05
2016-07-17T12:56:23.459Z,65.98
2016-07-17T12:57:20.909Z,65.59
2016-07-17T12:58:20.902Z,64.72
2016-07-17T12:59:24.177Z,63.71
2016-07-17T13:00:20.880Z,62.09
2016-07-17T13:01:20.915Z,60.88
2016-07-17T13:02:30.978Z,59.84
2016-07-17T13:03:22.857Z,59.28
2016-07-17T13:04:20.882Z,60.23
2016-07-17T13:05:20.912Z,59.48
2016-07-17T13:06:21.244Z,58.73
2016-07-17T13:07:20.889Z,58.63
2016-07-17T13:08:20.878Z,57.36
2016-07-17T13:09:20.923Z,60.03
2016-07-17T13:10:21.075Z,62.08
2016-07-17T13:11:20.907Z,63.26
2016-07-17T13:12:21.012Z,62.35
2016-07-17T13:14:20.910Z,62.22
2016-07-17T13:15:20.875Z,63.35
2016-07-17T13:16:20.880Z,65.92
2016-07-17T13:17:20.971Z,67.21
2016-07-17T13:18:23.695Z,69.41
2016-07-17T13:19:20.904Z,71.19
2016-07-17T13:20:21.127Z,71.58
2016-07-17T13:21:20.906Z,71.6
2016-07-17T13:22:20.907Z,73.15
2016-07-17T13:23:20.901Z,72.86
2016-07-17T13:24:22.528Z,73.25
2016-07-17T13:25:24.259Z,71.89
2016-07-17T13:26:21.213Z,69.21
2016-07-17T13:28:50.778Z,66.66
2016-07-17T13:29:50.752Z,65.56
2016-07-17T13:30:50.959Z,65.5
2016-07-17T13:31:50.754Z,65.59
2016-07-17T13:32:50.860Z,65.59
2016-07-17T13:33:50.758Z,66.37
2016-07-17T13:34:50.805Z,65.79
2016-07-17T13:35:50.928Z,63.1
2016-07-17T13:36:50.765Z,62.64
2016-07-17T13:37:55.511Z,61.9
2016-07-17T13:39:30.597Z,61.99
2016-07-17T13:39:50.770Z,62.16
2016-07-17T13:40:50.801Z,61.7
2016-07-17T13:41:50.765Z,60.82
2016-07-17T13:42:50.776Z,60.75
2016-07-17T13:44:33.672Z,61.24
2016-07-17T13:45:20.076Z,61.15
2016-07-17T13:47:22.364Z,59.88
2016-07-17T13:52:01.732Z,60.39
2016-07-17T13:54:10.938Z,60.85
2016-07-17T13:58:48.715Z,65.33
2016-07-17T13:59:29.810Z,66.21
2016-07-17T14:00:12.273Z,65.62
2016-07-17T14:01:14.751Z,64.49
2016-07-17T14:02:19.152Z,63.55
2016-07-17T14:03:19.076Z,61.64
2016-07-17T14:04:19.074Z,60.72
2016-07-17T14:05:19.066Z,59.98
2016-07-17T14:06:19.114Z,59.98
2016-07-17T14:07:29.190Z,62.29
2016-07-17T14:08:53.268Z,62.32
2016-07-17T14:09:22.571Z,63.17
2016-07-17T14:10:23.073Z,64.04
2016-07-17T14:11:19.722Z,64.49
2016-07-17T14:12:19.700Z,65.47
2016-07-17T14:13:19.727Z,65.92
2016-07-17T14:14:22.743Z,66.5
2016-07-17T14:16:32.467Z,67.69
2016-07-17T14:17:29.967Z,67.6
2016-07-17T14:18:29.866Z,67.73
2016-07-17T14:19:31.411Z,67.73
2016-07-17T14:20:29.867Z,68.12
2016-07-17T14:21:29.877Z,68.47
2016-07-17T14:22:30.275Z,68.89
2016-07-17T14:23:39.465Z,68.7
2016-07-17T14:24:44.899Z,68.66
2016-07-17T14:25:30.164Z,68.96
2016-07-17T14:26:40.565Z,69.15
2016-07-17T14:27:29.964Z,69.7
2016-07-17T14:28:29.883Z,69.79
2016-07-17T14:29:29.895Z,70.09
2016-07-17T14:30:29.898Z,70.47
2016-07-17T14:31:30.775Z,70.86
2016-07-17T14:32:33.126Z,70.47
2016-07-17T14:33:29.879Z,69.79
2016-07-17T14:34:30.602Z,70.86
2016-07-17T14:35:29.907Z,70.47
2016-07-17T14:36:29.882Z,69.12
2016-07-17T14:37:30.337Z,69.21
2016-07-17T14:38:30.246Z,68.92
2016-07-17T14:39:37.845Z,68.73
2016-07-17T14:43:26.321Z,69.21
2016-07-17T14:44:37.581Z,69.27
2016-07-17T14:45:31.194Z,69.08
2016-07-17T14:46:45.619Z,69.73
2016-07-17T14:47:32.034Z,69.76
2016-07-17T14:51:11.482Z,69.27
2016-07-17T14:53:15.893Z,69.85
2016-07-17T14:54:32.951Z,69.57
2016-07-17T14:55:13.626Z,69.67
2016-07-17T14:56:25.613Z,69.57
2016-07-17T14:57:23.575Z,69.67
2016-07-17T14:58:11.429Z,69.57